createdAt,value
2017-05-29T00:00:36.536Z,98.1
2017-05-29T00:01:16.971Z,98.58
2017-05-29T00:01:57.405Z,98.58
2017-05-29T00:02:37.818Z,98.48
2017-05-29T00:03:18.275Z,98.77
2017-05-29T00:03:58.725Z,97.91
2017-05-29T00:04:39.101Z,97.81
2017-05-29T00:05:19.547Z,98.72
2017-05-29T00:05:59.931Z,98.34
2017-05-29T00:06:40.361Z,98.34
2017-05-29T00:08:38.118Z,99.01
2017-05-29T00:09:18.552Z,98.72
2017-05-29T00:09:58.960Z,98.43
2017-05-29T00:10:39.371Z,98.43
2017-05-29T00:11:19.796Z,98.53
2017-05-29T00:12:00.234Z,98.53
2017-05-29T00:12:40.644Z,98.14
2017-05-29T00:13:21.044Z,98.34
2017-05-29T00:15:38.978Z,98.53
2017-05-29T00:16:19.389Z,99.01
2017-05-29T00:16:59.849Z,99.05
2017-05-29T00:17:40.267Z,99.4
2017-05-29T00:18:20.697Z,99.34
2017-05-29T00:19:01.083Z,99.34
2017-05-29T00:19:41.490Z,99.34
2017-05-29T00:20:21.930Z,99.05
2017-05-29T00:21:02.339Z,99.49
2017-05-29T00:21:42.754Z,99.3
2017-05-29T00:22:23.170Z,99.05
2017-05-29T00:23:03.596Z,98.43
2017-05-29T00:24:51.319Z,98.43
2017-05-29T00:25:31.755Z,98.58
2017-05-29T00:26:12.148Z,98.58
2017-05-29T00:26:52.565Z,98.96
2017-05-29T00:27:32.979Z,99.15
2017-05-29T00:28:13.415Z,99.34
2017-05-29T00:28:53.791Z,99.44
2017-05-29T00:29:34.225Z,99.05
2017-05-29T00:31:46.960Z,99.15
2017-05-29T00:32:27.378Z,99.34
2017-05-29T00:33:07.826Z,99.54
2017-05-29T00:33:48.247Z,99.34
2017-05-29T00:34:28.655Z,99.63
2017-05-29T00:35:09.064Z,99.63
2017-05-29T00:37:27.087Z,99.39
2017-05-29T00:38:07.457Z,99.2
2017-05-29T00:38:47.881Z,99.77
2017-05-29T00:39:28.296Z,99.49
2017-05-29T00:41:26.029Z,99.2
2017-05-29T00:42:06.447Z,99.2
2017-05-29T00:42:46.883Z,99.39
2017-05-29T00:43:27.277Z,99.77
2017-05-29T00:44:07.728Z,99.96
2017-05-29T00:44:48.199Z,99.87
2017-05-29T00:47:02.136Z,99.99
2017-05-29T00:47:42.558Z,99.39
2017-05-29T00:48:22.932Z,99.99
2017-05-29T00:49:03.342Z,99.77
2017-05-29T00:49:43.770Z,99.87
2017-05-29T00:50:24.194Z,99.68
2017-05-29T00:51:04.613Z,99.77
2017-05-29T00:51:45.079Z,99.99
2017-05-29T00:53:37.802Z,99.96
2017-05-29T00:54:18.233Z,99.87
2017-05-29T00:54:58.667Z,99.87
2017-05-29T00:55:39.089Z,99.77
2017-05-29T00:56:19.509Z,99.77
2017-05-29T00:56:59.946Z,99.58
2017-05-29T00:57:40.362Z,99.77
2017-05-29T00:58:20.758Z,99.99
2017-05-29T00:59:01.199Z,99.77
2017-05-29T00:59:41.566Z,99.49
2017-05-29T01:00:21.973Z,99.87
2017-05-29T01:01:02.410Z,99.77
2017-05-29T01:01:42.801Z,99.87
2017-05-29T01:02:23.193Z,99.39
2017-05-29T01:03:03.589Z,99.29
2017-05-29T01:03:44.020Z,99.29
2017-05-29T01:04:24.452Z,99.49
2017-05-29T01:06:12.281Z,99.82
2017-05-29T01:06:52.696Z,99.63
2017-05-29T01:07:33.138Z,99.53
2017-05-29T01:08:13.564Z,99.99
2017-05-29T01:08:53.984Z,99.99
2017-05-29T01:09:34.397Z,99.73
2017-05-29T01:10:14.799Z,99.73
2017-05-29T01:10:55.229Z,99.73
2017-05-29T01:11:35.639Z,99.53
2017-05-29T01:12:16.064Z,99.99
2017-05-29T01:12:56.486Z,99.91
2017-05-29T01:13:36.919Z,99.82
2017-05-29T01:14:17.316Z,99.99
2017-05-29T01:14:57.719Z,99.99
2017-05-29T01:15:38.121Z,99.99
2017-05-29T01:16:18.531Z,99.99
2017-05-29T01:16:58.930Z,99.96
2017-05-29T01:17:39.399Z,99.96
2017-05-29T01:18:19.793Z,99.99
2017-05-29T01:20:17.700Z,99.87
2017-05-29T01:20:58.138Z,99.99
2017-05-29T01:21:38.560Z,99.99
2017-05-29T01:22:18.975Z,99.99
2017-05-29T01:22:59.392Z,99.99
2017-05-29T01:23:39.790Z,99.99
2017-05-29T01:24:20.212Z,99.99
2017-05-29T01:25:00.594Z,99.99
2017-05-29T01:25:41.009Z,99.99
2017-05-29T01:26:21.419Z,99.99
2017-05-29T01:28:34.446Z,99.99
2017-05-29T01:29:14.851Z,99.99
2017-05-29T01:31:32.923Z,99.99
2017-05-29T01:32:13.358Z,99.99
2017-05-29T01:32:53.799Z,99.99
2017-05-29T01:33:34.204Z,99.99
2017-05-29T01:34:14.650Z,99.99
2017-05-29T01:34:55.051Z,99.99
2017-05-29T01:35:35.480Z,99.99
2017-05-29T01:36:15.912Z,99.99
2017-05-29T01:36:57.060Z,99.99
2017-05-29T01:37:37.490Z,99.99
2017-05-29T01:38:17.915Z,99.99
2017-05-29T01:38:58.343Z,99.99
2017-05-29T01:39:38.743Z,99.99
2017-05-29T01:40:19.190Z,99.99
2017-05-29T01:40:59.594Z,99.99
2017-05-29T01:41:40.037Z,99.99
2017-05-29T01:42:20.442Z,99.99
2017-05-29T01:43:00.870Z,99.99
2017-05-29T01:43:41.271Z,99.99
2017-05-29T01:45:34.029Z,99.99
2017-05-29T01:46:14.453Z,99.99
2017-05-29T01:46:54.896Z,99.99
2017-05-29T01:47:35.343Z,99.99
2017-05-29T01:48:15.732Z,99.99
2017-05-29T01:48:56.166Z,99.99
2017-05-29T01:49:36.582Z,99.99
2017-05-29T01:50:17.018Z,99.99
2017-05-29T01:50:57.455Z,99.99
2017-05-29T01:51:37.855Z,99.99
2017-05-29T01:53:30.512Z,99.99
2017-05-29T01:54:10.911Z,99.99
2017-05-29T01:54:51.348Z,99.99
2017-05-29T01:55:31.760Z,99.99
2017-05-29T01:56:12.154Z,99.99
2017-05-29T01:56:52.581Z,99.99
2017-05-29T01:57:33.052Z,99.99
2017-05-29T01:58:13.443Z,99.99
2017-05-29T01:58:53.854Z,99.99
2017-05-29T01:59:34.301Z,99.99
2017-05-29T02:00:14.693Z,99.99
2017-05-29T02:00:55.101Z,99.99
2017-05-29T02:01:35.526Z,99.99
2017-05-29T02:03:23.121Z,99.99
2017-05-29T02:04:03.530Z,99.99
2017-05-29T02:04:44.838Z,99.99
2017-05-29T02:05:25.273Z,99.99
2017-05-29T02:06:05.701Z,99.99
2017-05-29T02:06:46.141Z,99.99
2017-05-29T02:07:26.560Z,99.99
2017-05-29T02:08:06.987Z,99.99
2017-05-29T02:08:47.376Z,99.99
2017-05-29T02:09:27.821Z,99.99
2017-05-29T02:10:08.185Z,99.99
2017-05-29T02:10:48.642Z,99.99
2017-05-29T02:11:29.040Z,99.99
2017-05-29T02:12:09.453Z,99.99
2017-05-29T02:12:49.984Z,99.99
2017-05-29T02:13:30.342Z,99.99
2017-05-29T02:14:10.746Z,99.99
2017-05-29T02:16:03.403Z,99.99
2017-05-29T02:16:43.838Z,99.99
2017-05-29T02:17:24.267Z,99.99
2017-05-29T02:18:04.701Z,99.99
2017-05-29T02:18:45.121Z,99.99
2017-05-29T02:19:25.529Z,99.99
2017-05-29T02:20:05.953Z,99.99
2017-05-29T02:20:46.355Z,99.99
2017-05-29T02:22:59.678Z,99.99
2017-05-29T02:23:40.100Z,99.99
2017-05-29T02:24:20.567Z,99.99
2017-05-29T02:25:00.935Z,99.99
2017-05-29T02:25:41.365Z,99.99
2017-05-29T02:26:21.810Z,99.99
2017-05-29T02:27:02.238Z,99.99
2017-05-29T02:27:42.688Z,99.99
2017-05-29T02:28:23.080Z,99.99
2017-05-29T02:29:03.499Z,99.99
2017-05-29T02:29:43.993Z,99.99
2017-05-29T02:30:24.374Z,99.99
2017-05-29T02:31:04.769Z,99.99
2017-05-29T02:31:45.195Z,99.99
2017-05-29T02:33:42.953Z,99.99
2017-05-29T02:34:23.347Z,99.99
2017-05-29T02:35:03.790Z,99.99
2017-05-29T02:35:44.197Z,99.99
2017-05-29T02:36:24.627Z,99.99
2017-05-29T02:37:05.045Z,99.99
2017-05-29T02:37:45.480Z,99.99
2017-05-29T02:38:25.933Z,99.99
2017-05-29T02:39:06.357Z,99.99
2017-05-29T02:39:46.813Z,99.99
2017-05-29T02:40:27.263Z,99.99
2017-05-29T02:41:07.710Z,99.99
2017-05-29T02:41:48.091Z,99.99
2017-05-29T02:42:28.510Z,99.99
2017-05-29T02:43:08.923Z,99.99
2017-05-29T02:43:49.353Z,99.99
2017-05-29T02:44:29.767Z,99.99
2017-05-29T02:45:10.250Z,99.99
2017-05-29T02:45:50.603Z,99.99
2017-05-29T02:46:31.015Z,99.99
2017-05-29T02:47:11.438Z,99.99
2017-05-29T02:47:51.852Z,99.99
2017-05-29T02:48:32.261Z,99.99
2017-05-29T02:49:12.704Z,99.99
2017-05-29T02:49:53.149Z,99.99
2017-05-29T02:50:33.550Z,99.99
2017-05-29T02:51:13.957Z,99.99
2017-05-29T02:53:06.635Z,99.99
2017-05-29T02:53:47.073Z,99.99
2017-05-29T02:54:27.480Z,99.99
2017-05-29T02:56:20.141Z,99.99
2017-05-29T02:57:00.570Z,99.99
2017-05-29T02:57:41.014Z,99.99
2017-05-29T02:58:21.462Z,99.99
2017-05-29T02:59:01.956Z,99.99
2017-05-29T02:59:42.388Z,99.99
2017-05-29T03:00:22.798Z,99.99
2017-05-29T03:01:03.236Z,99.99
2017-05-29T03:03:21.372Z,99.99
2017-05-29T03:04:01.790Z,99.99
2017-05-29T03:04:42.230Z,99.99
2017-05-29T03:05:22.659Z,99.99
2017-05-29T03:06:03.060Z,99.99
2017-05-29T03:06:43.500Z,99.99
2017-05-29T03:07:23.918Z,99.99
2017-05-29T03:08:04.350Z,99.99
2017-05-29T03:08:44.782Z,99.99
2017-05-29T03:09:25.212Z,99.99
2017-05-29T03:11:38.084Z,99.99
2017-05-29T03:12:18.555Z,99.99
2017-05-29T03:14:11.053Z,99.99
2017-05-29T03:14:51.452Z,99.99
2017-05-29T03:15:31.895Z,99.99
2017-05-29T03:16:12.336Z,99.99
2017-05-29T03:16:52.699Z,99.99
2017-05-29T03:17:33.139Z,99.99
2017-05-29T03:18:13.534Z,99.99
2017-05-29T03:18:53.953Z,99.99
2017-05-29T03:19:34.370Z,99.99
2017-05-29T03:20:14.768Z,99.99
2017-05-29T03:20:55.174Z,99.99
2017-05-29T03:21:35.599Z,99.99
2017-05-29T03:23:48.594Z,99.99
2017-05-29T03:24:28.998Z,99.99
2017-05-29T03:25:09.431Z,99.99
2017-05-29T03:25:49.872Z,99.99
2017-05-29T03:26:30.291Z,99.99
2017-05-29T03:27:10.716Z,99.99
2017-05-29T03:27:51.122Z,99.99
2017-05-29T03:28:31.662Z,99.99
2017-05-29T03:29:12.087Z,99.99
2017-05-29T03:29:52.553Z,99.99
2017-05-29T03:30:32.987Z,99.99
2017-05-29T03:31:13.419Z,99.99
2017-05-29T03:31:53.814Z,99.99
2017-05-29T03:32:34.234Z,99.99
2017-05-29T03:33:14.650Z,99.99
2017-05-29T03:33:55.113Z,99.99
2017-05-29T03:34:35.532Z,99.99
2017-05-29T03:35:15.915Z,99.99
2017-05-29T03:35:56.369Z,99.99
2017-05-29T03:36:36.856Z,99.99
2017-05-29T03:37:17.254Z,99.99
2017-05-29T03:37:57.697Z,99.99
2017-05-29T03:38:38.090Z,99.99
2017-05-29T03:39:18.493Z,99.99
2017-05-29T03:39:58.899Z,99.99
2017-05-29T03:40:39.299Z,99.99
2017-05-29T03:41:19.732Z,99.99
2017-05-29T03:42:00.129Z,99.99
2017-05-29T03:42:40.598Z,99.99
2017-05-29T03:43:20.988Z,99.99
2017-05-29T03:44:01.372Z,99.99
2017-05-29T03:44:41.773Z,99.99
2017-05-29T03:45:22.183Z,99.99
2017-05-29T03:48:53.560Z,99.99
2017-05-29T03:49:35.999Z,99.99
2017-05-29T03:50:16.419Z,99.99
2017-05-29T03:52:34.425Z,99.99
2017-05-29T03:53:15.986Z,99.99
2017-05-29T03:53:56.411Z,99.99
2017-05-29T03:54:36.767Z,99.99
2017-05-29T03:55:17.191Z,99.99
2017-05-29T03:55:57.672Z,99.99
2017-05-29T03:56:38.063Z,99.99
2017-05-29T03:57:19.971Z,99.99
2017-05-29T03:58:02.394Z,99.99
2017-05-29T03:58:42.813Z,99.99
2017-05-29T03:59:24.060Z,99.99
2017-05-29T04:00:05.875Z,99.99
2017-05-29T04:00:46.274Z,99.99
2017-05-29T04:03:06.728Z,99.99
2017-05-29T04:03:47.133Z,99.99
2017-05-29T04:04:29.170Z,99.99
2017-05-29T04:06:42.664Z,99.99
2017-05-29T04:07:23.764Z,99.99
2017-05-29T04:08:05.207Z,99.99
2017-05-29T04:08:45.606Z,99.99
2017-05-29T04:09:26.100Z,99.99
2017-05-29T04:10:07.371Z,99.99
2017-05-29T04:10:48.723Z,99.99
2017-05-29T04:11:29.173Z,99.99
2017-05-29T04:12:09.555Z,99.99
2017-05-29T04:12:50.007Z,99.99
2017-05-29T04:13:30.456Z,99.99
2017-05-29T04:14:11.614Z,99.99
2017-05-29T04:14:53.711Z,99.99
2017-05-29T04:15:34.852Z,99.99
2017-05-29T04:16:15.270Z,99.99
2017-05-29T04:16:56.513Z,99.99
2017-05-29T04:17:36.910Z,99.99
2017-05-29T04:18:17.330Z,99.99
2017-05-29T04:18:59.290Z,99.99
2017-05-29T04:19:40.403Z,99.99
2017-05-29T04:20:22.684Z,99.99
2017-05-29T04:21:03.236Z,99.99
2017-05-29T04:21:43.703Z,99.99
2017-05-29T04:22:24.685Z,99.99
2017-05-29T04:23:05.120Z,99.99
2017-05-29T04:23:45.546Z,99.99
2017-05-29T04:24:25.953Z,99.99
2017-05-29T04:25:07.181Z,99.99
2017-05-29T04:25:47.615Z,99.99
2017-05-29T04:26:29.783Z,99.99
2017-05-29T04:27:10.158Z,99.99
2017-05-29T04:27:51.314Z,99.99
2017-05-29T04:28:32.675Z,99.99
2017-05-29T04:29:13.158Z,99.99
2017-05-29T04:29:53.632Z,99.99
2017-05-29T04:30:34.096Z,99.99
2017-05-29T04:31:14.455Z,99.99
2017-05-29T04:31:55.672Z,99.99
2017-05-29T04:32:37.056Z,99.99
2017-05-29T04:33:17.426Z,99.99
2017-05-29T04:33:58.341Z,99.99
2017-05-29T04:34:38.788Z,99.99
2017-05-29T04:35:19.177Z,99.99
2017-05-29T04:36:01.322Z,99.99
2017-05-29T04:36:43.620Z,99.99
2017-05-29T04:37:24.061Z,99.99
2017-05-29T04:38:04.453Z,99.99
2017-05-29T04:38:44.896Z,99.99
2017-05-29T04:39:25.321Z,99.99
2017-05-29T04:40:05.717Z,99.99
2017-05-29T04:40:46.075Z,99.99
2017-05-29T04:41:26.520Z,99.99
2017-05-29T04:42:06.930Z,99.99
2017-05-29T04:42:48.199Z,99.99
2017-05-29T04:43:28.603Z,99.99
2017-05-29T04:44:09.071Z,99.99
2017-05-29T04:44:50.359Z,99.99
2017-05-29T04:45:31.356Z,99.99
2017-05-29T04:46:11.816Z,99.99
2017-05-29T04:46:52.252Z,99.99
2017-05-29T04:47:34.606Z,99.99
2017-05-29T04:48:15.698Z,99.99
2017-05-29T04:48:57.012Z,99.99
2017-05-29T04:49:37.444Z,99.99
2017-05-29T04:50:17.856Z,99.99
2017-05-29T04:50:58.283Z,99.99
2017-05-29T04:51:38.671Z,99.99
2017-05-29T04:52:19.081Z,99.99
2017-05-29T04:52:59.519Z,99.99
2017-05-29T04:53:39.932Z,99.99
2017-05-29T04:54:21.123Z,99.99
2017-05-29T04:55:01.529Z,99.99
2017-05-29T04:55:41.923Z,99.99
2017-05-29T04:56:24.139Z,99.99
2017-05-29T04:57:06.026Z,99.99
2017-05-29T04:57:46.418Z,99.99
2017-05-29T04:58:26.837Z,99.99
2017-05-29T04:59:07.300Z,99.99
2017-05-29T04:59:47.748Z,99.99
2017-05-29T05:00:28.160Z,99.99
2017-05-29T05:01:10.041Z,99.99
2017-05-29T05:01:50.407Z,99.99
2017-05-29T05:02:30.872Z,99.99
2017-05-29T05:03:11.259Z,99.99
2017-05-29T05:03:51.673Z,99.99
2017-05-29T05:05:49.577Z,99.99
2017-05-29T05:06:29.978Z,99.99
2017-05-29T05:07:10.378Z,99.99
2017-05-29T05:07:50.795Z,99.99
2017-05-29T05:08:32.959Z,99.99
2017-05-29T05:09:15.251Z,99.99
2017-05-29T05:09:55.677Z,99.99
2017-05-29T05:10:36.148Z,99.99
2017-05-29T05:11:16.634Z,99.99
2017-05-29T05:11:58.454Z,99.99
2017-05-29T05:12:39.537Z,99.99
2017-05-29T05:13:19.956Z,99.99
2017-05-29T05:14:00.346Z,99.99
2017-05-29T05:14:40.766Z,99.99
2017-05-29T05:15:21.193Z,99.99
2017-05-29T05:16:01.590Z,99.99
2017-05-29T05:16:42.981Z,99.99
2017-05-29T05:17:23.378Z,99.99
2017-05-29T05:18:04.450Z,99.99
2017-05-29T05:18:45.457Z,99.99
2017-05-29T05:19:26.560Z,99.99
2017-05-29T05:20:06.956Z,99.99
2017-05-29T05:20:48.042Z,99.99
2017-05-29T05:21:28.460Z,99.99
2017-05-29T05:22:08.885Z,99.99
2017-05-29T05:22:49.338Z,99.99
2017-05-29T05:23:29.738Z,99.99
2017-05-29T05:24:10.229Z,99.99
2017-05-29T05:24:50.681Z,99.99
2017-05-29T05:25:32.488Z,99.99
2017-05-29T05:26:13.484Z,99.99
2017-05-29T05:26:55.544Z,99.99
2017-05-29T05:27:35.985Z,99.99
2017-05-29T05:28:16.401Z,99.99
2017-05-29T05:28:56.835Z,99.99
2017-05-29T05:29:38.087Z,99.99
2017-05-29T05:30:18.484Z,99.99
2017-05-29T05:30:58.907Z,99.99
2017-05-29T05:31:39.337Z,99.99
2017-05-29T05:32:19.812Z,99.99
2017-05-29T05:33:00.288Z,99.99
2017-05-29T05:33:40.703Z,99.99
2017-05-29T05:34:21.735Z,99.99
2017-05-29T05:35:02.945Z,99.99
2017-05-29T05:35:43.382Z,99.99
2017-05-29T05:36:23.858Z,99.99
2017-05-29T05:37:04.326Z,99.99
2017-05-29T05:37:45.554Z,99.99
2017-05-29T05:38:25.938Z,99.99
2017-05-29T05:39:06.326Z,99.99
2017-05-29T05:39:47.624Z,99.99
2017-05-29T05:40:28.084Z,99.99
2017-05-29T05:41:08.525Z,99.99
2017-05-29T05:41:48.887Z,99.99
2017-05-29T05:42:30.272Z,99.99
2017-05-29T05:43:11.573Z,99.99
2017-05-29T05:43:52.068Z,99.99
2017-05-29T05:44:32.520Z,99.99
2017-05-29T05:45:13.544Z,99.99
2017-05-29T05:45:53.953Z,99.99
2017-05-29T05:46:34.384Z,99.99
2017-05-29T05:47:15.709Z,99.99
2017-05-29T05:47:56.133Z,99.99
2017-05-29T05:48:36.614Z,99.99
2017-05-29T05:49:16.999Z,99.99
2017-05-29T05:49:57.455Z,99.99
2017-05-29T05:50:37.888Z,99.99
2017-05-29T05:51:18.254Z,99.99
2017-05-29T05:51:59.584Z,99.99
2017-05-29T05:52:41.580Z,99.99
2017-05-29T05:53:21.981Z,99.99
2017-05-29T05:54:03.052Z,99.99
2017-05-29T05:54:43.549Z,99.99
2017-05-29T05:55:23.961Z,99.99
2017-05-29T05:56:04.425Z,99.99
2017-05-29T05:56:46.462Z,99.99
2017-05-29T05:57:26.974Z,99.99
2017-05-29T05:58:07.440Z,99.99
2017-05-29T05:58:47.881Z,99.99
2017-05-29T05:59:28.351Z,99.99
2017-05-29T06:00:08.792Z,99.99
2017-05-29T06:00:49.239Z,99.99
2017-05-29T06:01:29.636Z,99.99
2017-05-29T06:02:10.062Z,99.99
2017-05-29T06:02:50.439Z,99.99
2017-05-29T06:03:30.900Z,99.99
2017-05-29T06:04:11.315Z,99.99
2017-05-29T06:06:04.079Z,99.99
2017-05-29T06:06:45.389Z,99.99
2017-05-29T06:08:43.211Z,99.99
2017-05-29T06:09:23.630Z,99.99
2017-05-29T06:10:04.094Z,99.99
2017-05-29T06:10:44.513Z,99.99
2017-05-29T06:11:26.846Z,99.99
2017-05-29T06:12:07.853Z,99.99
2017-05-29T06:12:48.946Z,99.99
2017-05-29T06:13:30.263Z,99.99
2017-05-29T06:14:10.695Z,99.99
2017-05-29T06:14:51.165Z,99.89
2017-05-29T06:15:31.592Z,99.99
2017-05-29T06:16:11.967Z,99.99
2017-05-29T06:17:59.586Z,99.84
2017-05-29T06:18:40.028Z,99.16
2017-05-29T06:19:20.482Z,99.36
2017-05-29T06:20:01.774Z,99.02
2017-05-29T06:20:42.219Z,98.93
2017-05-29T06:21:22.662Z,98.63
2017-05-29T06:22:03.060Z,98.25
2017-05-29T06:22:43.454Z,98.35
2017-05-29T06:23:25.015Z,98.25
2017-05-29T06:24:06.510Z,98.54
2017-05-29T06:24:46.922Z,98.05
2017-05-29T06:26:40.259Z,97.23
2017-05-29T06:27:20.675Z,97.13
2017-05-29T06:28:01.118Z,96.55
2017-05-29T06:28:41.554Z,96.98
2017-05-29T06:30:29.125Z,96.12
2017-05-29T06:31:09.552Z,96.06
2017-05-29T06:31:50.015Z,95.39
2017-05-29T06:32:30.436Z,95.48
2017-05-29T06:33:10.929Z,95.29
2017-05-29T06:33:51.373Z,94.61
2017-05-29T06:34:31.867Z,94.61
2017-05-29T06:35:12.271Z,94.23
2017-05-29T06:35:52.691Z,93.88
2017-05-29T06:36:33.103Z,93.88
2017-05-29T06:37:13.533Z,94.17
2017-05-29T06:37:54.002Z,93.79
2017-05-29T06:38:34.448Z,93.11
2017-05-29T06:39:14.883Z,93.35
2017-05-29T06:39:55.312Z,92.57
2017-05-29T06:40:35.726Z,93.15
2017-05-29T06:41:16.170Z,92.47
2017-05-29T06:41:56.616Z,92.28
2017-05-29T06:42:37.200Z,92.38
2017-05-29T06:43:18.519Z,91.79
2017-05-29T06:43:58.959Z,91.74
2017-05-29T06:44:39.348Z,91.06
2017-05-29T06:45:19.791Z,91.06
2017-05-29T06:46:00.284Z,90.87
2017-05-29T06:46:40.705Z,90.28
2017-05-29T06:47:21.133Z,90.19
2017-05-29T06:48:01.598Z,90.33
2017-05-29T06:48:42.014Z,89.84
2017-05-29T06:49:22.426Z,89.94
2017-05-29T06:51:40.381Z,89.36
2017-05-29T06:52:20.814Z,89.45
2017-05-29T06:53:01.242Z,88.78
2017-05-29T06:53:41.640Z,88.43
2017-05-29T06:54:22.941Z,88.14
2017-05-29T06:55:04.114Z,88.72
2017-05-29T06:55:45.071Z,87.65
2017-05-29T06:56:25.463Z,87.65
2017-05-29T06:57:05.965Z,86.98
2017-05-29T06:57:46.351Z,87.12
2017-05-29T06:58:27.420Z,86.82
2017-05-29T06:59:07.821Z,86.72
2017-05-29T06:59:48.244Z,86.24
2017-05-29T07:00:28.673Z,85.66
2017-05-29T07:01:09.069Z,85.89
2017-05-29T07:01:49.537Z,85.31
2017-05-29T07:02:29.918Z,85.21
2017-05-29T07:03:10.381Z,84.63
2017-05-29T07:03:50.813Z,84.63
2017-05-29T07:04:31.265Z,84.23
2017-05-29T07:05:12.226Z,83.95
2017-05-29T07:05:52.674Z,84.14
2017-05-29T07:06:33.738Z,83.65
2017-05-29T07:07:14.158Z,83.6
2017-05-29T07:07:55.525Z,83.4
2017-05-29T07:08:35.941Z,83.01
2017-05-29T07:09:18.016Z,82.76
2017-05-29T07:09:58.419Z,82.67
2017-05-29T07:10:38.817Z,82.47
2017-05-29T07:11:19.302Z,81.88
2017-05-29T07:11:59.690Z,82.18
2017-05-29T07:12:40.118Z,82.12
2017-05-29T07:13:20.554Z,82.9
2017-05-29T07:14:01.033Z,83.23
2017-05-29T07:14:41.472Z,83.95
2017-05-29T07:15:21.878Z,83.16
2017-05-29T07:16:02.324Z,81.64
2017-05-29T07:16:42.709Z,80.9
2017-05-29T07:17:23.155Z,79.41
2017-05-29T07:19:42.687Z,74.29
2017-05-29T07:20:23.129Z,72.75
2017-05-29T07:21:03.611Z,71.74
2017-05-29T07:21:44.080Z,70.43
2017-05-29T07:23:37.291Z,66.63
2017-05-29T07:24:17.695Z,65.5
2017-05-29T07:24:58.127Z,64.28
2017-05-29T07:25:38.544Z,63.23
2017-05-29T07:27:53.155Z,60.55
2017-05-29T07:28:34.301Z,59.99
2017-05-29T07:29:14.721Z,59.22
2017-05-29T07:29:56.157Z,58.36
2017-05-29T07:30:37.358Z,57.29
2017-05-29T07:31:17.751Z,56.34
2017-05-29T07:33:12.102Z,54
2017-05-29T07:33:53.167Z,53.63
2017-05-29T07:34:33.606Z,52.84
2017-05-29T07:35:14.574Z,51.95
2017-05-29T07:37:12.547Z,50.08
2017-05-29T07:37:53.008Z,49.31
2017-05-29T07:38:33.471Z,49.21
2017-05-29T07:39:13.909Z,48.44
2017-05-29T07:39:54.389Z,47.94
2017-05-29T07:40:34.867Z,47.07
2017-05-29T07:42:24.063Z,45.7
2017-05-29T07:43:04.499Z,45.3
2017-05-29T07:43:44.942Z,44.82
2017-05-29T07:44:25.380Z,43.93
2017-05-29T07:45:05.854Z,43.45
2017-05-29T07:46:58.695Z,42.27
2017-05-29T07:47:39.920Z,41.39
2017-05-29T07:48:20.363Z,41.19
2017-05-29T07:49:00.805Z,40.8
2017-05-29T07:49:41.293Z,40.4
2017-05-29T07:50:22.250Z,39.8
2017-05-29T07:51:02.712Z,39.4
2017-05-29T07:51:43.158Z,38.7
2017-05-29T07:52:24.375Z,38.02
2017-05-29T07:53:04.827Z,37.92
2017-05-29T07:53:45.228Z,37.42
2017-05-29T07:54:26.268Z,37.12
2017-05-29T07:55:07.667Z,37.12
2017-05-29T07:55:48.058Z,37.02
2017-05-29T07:57:46.007Z,35.53
2017-05-29T07:58:26.446Z,35.54
2017-05-29T07:59:06.850Z,35.13
2017-05-29T07:59:47.979Z,34.75
2017-05-29T08:00:28.370Z,34.34
2017-05-29T08:01:08.808Z,33.75
2017-05-29T08:01:49.286Z,33.76
2017-05-29T08:02:30.353Z,33.06
2017-05-29T08:03:10.829Z,32.86
2017-05-29T08:03:51.244Z,32.38
2017-05-29T08:04:31.730Z,31.99
2017-05-29T08:05:12.186Z,31.29
2017-05-29T08:05:52.615Z,31.1
2017-05-29T08:06:33.085Z,30.71
2017-05-29T08:07:13.554Z,30.11
2017-05-29T08:07:54.861Z,29.82
2017-05-29T08:08:35.317Z,29.82
2017-05-29T08:09:15.763Z,28.72
2017-05-29T08:09:57.969Z,28.62
2017-05-29T08:10:38.367Z,27.94
2017-05-29T08:11:18.789Z,27.94
2017-05-29T08:12:00.147Z,27.95
2017-05-29T08:12:40.581Z,27.66
2017-05-29T08:13:20.976Z,27.15
2017-05-29T08:14:01.428Z,27.15
2017-05-29T08:14:41.882Z,27.23
2017-05-29T08:15:22.289Z,27.14
2017-05-29T08:16:04.383Z,26.93
2017-05-29T08:16:44.841Z,26.54
2017-05-29T08:17:27.218Z,25.96
2017-05-29T08:18:07.692Z,25.85
2017-05-29T08:18:48.120Z,25.67
2017-05-29T08:19:28.577Z,25.58
2017-05-29T08:20:08.981Z,24.89
2017-05-29T08:20:49.403Z,24.5
2017-05-29T08:21:30.549Z,24
2017-05-29T08:22:10.969Z,23.71
2017-05-29T08:22:51.429Z,23.5
2017-05-29T08:23:31.925Z,23.62
2017-05-29T08:24:13.071Z,23.33
2017-05-29T08:24:53.491Z,22.63
2017-05-29T08:25:34.539Z,22.44
2017-05-29T08:26:14.982Z,22.53
2017-05-29T08:26:55.508Z,22.53
2017-05-29T08:27:35.932Z,22.44
2017-05-29T08:28:16.387Z,22.24
2017-05-29T08:28:56.805Z,21.84
2017-05-29T08:29:38.231Z,21.34
2017-05-29T08:30:18.657Z,21.54
2017-05-29T08:31:00.090Z,21.55
2017-05-29T08:31:40.523Z,21.25
2017-05-29T08:32:20.955Z,20.75
2017-05-29T08:33:05.153Z,20.25
2017-05-29T08:33:45.561Z,20.25
2017-05-29T08:34:26.002Z,20.16
2017-05-29T08:35:07.383Z,19.35
2017-05-29T08:35:47.831Z,19.65
2017-05-29T08:36:28.227Z,19.56
2017-05-29T08:37:08.650Z,19.06
2017-05-29T08:37:49.077Z,18.26
2017-05-29T08:38:29.515Z,18.26
2017-05-29T08:39:09.967Z,18.16
2017-05-29T08:39:50.496Z,17.86
2017-05-29T08:40:31.000Z,17.25
2017-05-29T08:41:11.414Z,17.65
2017-05-29T08:41:51.849Z,17.25
2017-05-29T08:42:32.276Z,17.35
2017-05-29T08:43:12.709Z,17.55
2017-05-29T08:43:53.176Z,17.15
2017-05-29T08:44:33.625Z,17.55
2017-05-29T08:45:14.043Z,17.35
2017-05-29T08:45:54.512Z,16.64
2017-05-29T08:46:34.959Z,16.85
2017-05-29T08:47:15.396Z,16.75
2017-05-29T08:47:56.638Z,16.26
2017-05-29T08:48:37.119Z,16.26
2017-05-29T08:49:18.125Z,16.36
2017-05-29T08:49:58.603Z,16.56
2017-05-29T08:50:39.739Z,16.26
2017-05-29T08:51:20.142Z,16.35
2017-05-29T08:52:00.588Z,16.55
2017-05-29T08:52:41.077Z,16.95
2017-05-29T08:53:21.509Z,16.74
2017-05-29T08:54:01.929Z,16.64
2017-05-29T08:54:43.256Z,16.74
2017-05-29T08:55:23.661Z,16.44
2017-05-29T08:56:04.097Z,16.44
2017-05-29T08:56:44.505Z,16.35
2017-05-29T08:57:24.947Z,16.24
2017-05-29T08:58:06.083Z,16.04
2017-05-29T08:58:46.475Z,15.84
2017-05-29T08:59:26.876Z,15.73
2017-05-29T09:00:08.169Z,16.04
2017-05-29T09:00:48.613Z,15.63
2017-05-29T09:01:29.062Z,15.81
2017-05-29T09:02:09.468Z,16.3
2017-05-29T09:02:49.916Z,16.5
2017-05-29T09:03:31.179Z,16.69
2017-05-29T09:04:11.601Z,16.59
2017-05-29T09:04:52.015Z,16.49
2017-05-29T09:05:32.474Z,16.29
2017-05-29T09:06:12.824Z,16.29
2017-05-29T09:06:53.260Z,16.3
2017-05-29T09:07:33.701Z,15.8
2017-05-29T09:08:14.108Z,16
2017-05-29T09:10:12.609Z,15.41
2017-05-29T09:10:53.031Z,15.52
2017-05-29T09:11:33.442Z,15.42
2017-05-29T09:13:51.591Z,14.92
2017-05-29T09:14:32.145Z,14.52
2017-05-29T09:15:13.439Z,14.53
2017-05-29T09:15:53.886Z,13.93
2017-05-29T09:16:34.354Z,13.93
2017-05-29T09:17:15.716Z,13.63
2017-05-29T09:17:56.135Z,13.93
2017-05-29T09:19:54.117Z,14.23
2017-05-29T09:20:34.545Z,14.13
2017-05-29T09:21:15.533Z,13.82
2017-05-29T09:21:55.991Z,14.04
2017-05-29T09:22:36.421Z,14.04
2017-05-29T09:23:17.531Z,13.63
2017-05-29T09:23:57.989Z,13.54
2017-05-29T09:24:41.289Z,13.85
2017-05-29T09:25:23.443Z,13.95
2017-05-29T09:26:03.906Z,13.66
2017-05-29T09:26:45.043Z,13.05
2017-05-29T09:27:25.453Z,12.96
2017-05-29T09:28:05.950Z,12.66
2017-05-29T09:28:46.397Z,12.46
2017-05-29T09:29:26.784Z,12.66
2017-05-29T09:30:07.236Z,12.76
2017-05-29T09:30:47.681Z,12.56
2017-05-29T09:31:28.100Z,12.66
2017-05-29T09:32:08.544Z,12.46
2017-05-29T09:32:49.038Z,12.46
2017-05-29T09:33:30.139Z,12.46
2017-05-29T09:34:10.597Z,12.66
2017-05-29T09:34:51.028Z,12.55
2017-05-29T09:35:31.459Z,12.75
2017-05-29T09:36:12.664Z,12.45
2017-05-29T09:36:53.127Z,12.65
2017-05-29T09:37:34.275Z,12.45
2017-05-29T09:38:14.720Z,12.65
2017-05-29T09:38:55.756Z,12.55
2017-05-29T09:39:36.198Z,12.74
2017-05-29T09:40:16.624Z,12.85
2017-05-29T09:40:57.038Z,12.96
2017-05-29T09:41:37.471Z,12.55
2017-05-29T09:42:17.886Z,12.46
2017-05-29T09:42:58.352Z,12.55
2017-05-29T09:43:38.793Z,12.76
2017-05-29T09:44:19.192Z,12.66
2017-05-29T09:44:59.597Z,12.46
2017-05-29T09:45:40.032Z,12.16
2017-05-29T09:46:20.523Z,12.06
2017-05-29T09:47:00.948Z,12.06
2017-05-29T09:47:42.153Z,11.96